createdAt,value
2019-03-11T00:04:51.795Z,4.70
2019-03-11T00:09:54.198Z,4.70
2019-03-11T00:14:56.843Z,4.80
2019-03-11T00:19:59.510Z,4.70
2019-03-11T00:25:01.918Z,4.60
2019-03-11T00:30:05.352Z,4.50
2019-03-11T00:35:07.798Z,4.40
2019-03-11T00:40:10.568Z,4.30
2019-03-11T00:45:13.038Z,4.20
2019-03-11T00:50:16.437Z,4.10
2019-03-11T00:55:19.063Z,4.10
2019-03-11T01:00:28.475Z,4.10
2019-03-11T01:05:30.892Z,4.10
2019-03-11T01:10:33.287Z,4.00
2019-03-11T01:15:35.753Z,4.00
2019-03-11T01:20:38.375Z,4.00
2019-03-11T01:25:40.812Z,4.00
2019-03-11T01:30:43.634Z,4.10
2019-03-11T01:35:46.238Z,4.10
2019-03-11T01:40:49.423Z,4.20
2019-03-11T01:45:51.424Z,4.20
2019-03-11T01:50:53.519Z,4.20
2019-03-11T01:55:55.567Z,4.20
2019-03-11T02:00:57.978Z,4.20
2019-03-11T02:06:00.378Z,4.10
2019-03-11T02:11:02.882Z,4.20
2019-03-11T02:16:05.290Z,4.10
2019-03-11T02:21:07.877Z,4.10
2019-03-11T02:26:10.368Z,4.20
2019-03-11T02:31:12.760Z,4.30
2019-03-11T02:36:15.356Z,4.40
2019-03-11T02:41:17.797Z,4.50
2019-03-11T02:46:19.453Z,4.60
2019-03-11T02:51:21.051Z,4.60
2019-03-11T02:56:24.019Z,4.60
2019-03-11T03:01:35.953Z,4.70
2019-03-11T03:06:38.404Z,4.70
2019-03-11T03:11:40.981Z,4.60
2019-03-11T03:16:43.379Z,4.60
2019-03-11T03:21:46.446Z,4.60
2019-03-11T03:26:48.985Z,4.60
2019-03-11T03:31:52.113Z,4.50
2019-03-11T03:36:54.664Z,4.50
2019-03-11T03:41:57.761Z,4.60
2019-03-11T03:47:00.237Z,4.70
2019-03-11T03:52:02.816Z,4.70
2019-03-11T03:57:05.327Z,4.80
2019-03-11T04:02:07.841Z,5.00
2019-03-11T04:07:10.270Z,5.10
2019-03-11T04:12:12.670Z,5.20
2019-03-11T04:17:15.485Z,5.30
2019-03-11T04:22:18.081Z,5.40
2019-03-11T04:27:20.568Z,5.40
2019-03-11T04:32:23.119Z,5.40
2019-03-11T04:37:26.457Z,5.50
2019-03-11T04:42:28.862Z,5.50
2019-03-11T04:47:31.516Z,5.50
2019-03-11T04:52:34.813Z,5.50
2019-03-11T04:57:47.529Z,5.50
2019-03-11T05:02:49.872Z,5.50
2019-03-11T05:07:52.626Z,5.60
2019-03-11T05:12:54.939Z,5.70
2019-03-11T05:17:57.436Z,5.70
2019-03-11T05:23:01.508Z,5.80
2019-03-11T05:28:04.540Z,5.90
2019-03-11T05:33:07.215Z,6.00
2019-03-11T05:38:09.639Z,5.90
2019-03-11T05:43:12.195Z,5.70
2019-03-11T05:48:15.426Z,5.50
2019-03-11T05:53:18.276Z,5.50
2019-03-11T05:58:21.705Z,5.50
2019-03-11T06:03:24.431Z,5.50
2019-03-11T06:08:27.509Z,5.60
2019-03-11T06:13:35.898Z,5.70
2019-03-11T06:18:46.681Z,5.80
2019-03-11T06:23:49.473Z,5.80
2019-03-11T06:28:51.921Z,5.70
2019-03-11T06:33:54.650Z,5.60
2019-03-11T06:39:05.342Z,5.50
2019-03-11T06:44:01.391Z,5.40
2019-03-11T06:49:03.959Z,5.40
2019-03-11T06:54:11.935Z,5.50
2019-03-11T06:59:14.448Z,5.60
2019-03-11T07:04:17.201Z,5.70
2019-03-11T07:09:20.245Z,5.70
2019-03-11T07:14:22.785Z,5.80
2019-03-11T07:19:25.587Z,5.70
2019-03-11T07:24:29.220Z,5.80
2019-03-11T07:29:31.771Z,5.80
2019-03-11T07:34:34.803Z,5.70
2019-03-11T07:39:37.531Z,4.40
2019-03-11T07:44:40.079Z,3.90
2019-03-11T07:49:42.457Z,3.60
2019-03-11T07:54:45.759Z,3.50
2019-03-11T07:59:48.296Z,3.40
2019-03-11T08:04:59.490Z,3.40
2019-03-11T08:10:37.044Z,3.40
2019-03-11T08:15:43.926Z,3.40
2019-03-11T08:20:48.023Z,3.50
2019-03-11T08:25:52.233Z,3.60
2019-03-11T08:30:55.885Z,3.60
2019-03-11T08:36:05.953Z,3.70
2019-03-11T08:41:07.383Z,3.70
2019-03-11T08:46:09.823Z,3.70
2019-03-11T08:51:14.587Z,3.80
2019-03-11T08:56:22.006Z,4.00
2019-03-11T09:01:29.324Z,4.30
2019-03-11T09:06:33.286Z,4.80
2019-03-11T09:11:38.662Z,5.00
2019-03-11T09:17:05.713Z,4.50
2019-03-11T09:22:43.704Z,4.10
2019-03-11T09:27:46.516Z,4.00
2019-03-11T09:32:49.908Z,4.20
2019-03-11T09:37:52.364Z,4.40
2019-03-11T09:42:56.501Z,4.60
2019-03-11T09:47:59.054Z,4.80
2019-03-11T09:53:01.525Z,4.90
2019-03-11T09:58:04.666Z,4.90
2019-03-11T10:03:07.092Z,4.90
2019-03-11T10:08:10.907Z,5.00
2019-03-11T10:13:13.821Z,4.80
2019-03-11T10:18:16.357Z,4.40
2019-03-11T10:23:18.968Z,4.00
2019-03-11T10:28:21.367Z,4.00
2019-03-11T10:33:23.801Z,4.00
2019-03-11T10:38:27.091Z,4.00
2019-03-11T10:43:29.465Z,4.20
2019-03-11T10:48:50.272Z,4.30
2019-03-11T10:53:53.191Z,4.70
2019-03-11T11:04:51.185Z,5.20
2019-03-11T11:09:54.436Z,5.80
2019-03-11T11:14:57.674Z,5.80
2019-03-11T11:20:03.740Z,5.90
2019-03-11T11:25:20.205Z,6.10
2019-03-11T11:30:24.291Z,5.80
2019-03-11T11:35:29.436Z,5.50
2019-03-11T11:40:33.720Z,5.20
2019-03-11T11:45:38.958Z,4.80
2019-03-11T11:50:54.922Z,5.10
2019-03-11T11:55:59.242Z,5.20
2019-03-11T12:01:01.711Z,5.00
2019-03-11T12:06:04.912Z,4.90
2019-03-11T12:11:07.462Z,4.70
2019-03-11T12:16:10.121Z,4.60
2019-03-11T12:21:12.589Z,4.60
2019-03-11T12:26:15.181Z,4.70
2019-03-11T12:31:22.796Z,4.90
2019-03-11T12:36:32.996Z,5.20
2019-03-11T12:41:35.851Z,5.50
2019-03-11T12:46:39.048Z,5.50
2019-03-11T12:51:49.277Z,5.50
2019-03-11T12:56:45.967Z,5.60
2019-03-11T13:01:48.391Z,5.80
2019-03-11T13:06:51.517Z,6.00
2019-03-11T13:11:54.308Z,6.20
2019-03-11T13:16:56.983Z,6.40
2019-03-11T13:22:01.350Z,6.70
2019-03-11T13:27:04.244Z,7.00
2019-03-11T13:32:06.870Z,7.00
2019-03-11T13:37:08.243Z,6.80
2019-03-11T13:42:10.100Z,5.70
2019-03-11T13:47:11.429Z,4.90
2019-03-11T13:52:13.315Z,4.50
2019-03-11T13:57:16.854Z,4.40
2019-03-11T14:02:19.243Z,4.70
2019-03-11T14:07:22.408Z,5.00
2019-03-11T14:12:24.824Z,5.20
2019-03-11T14:17:27.625Z,5.40
2019-03-11T14:22:31.012Z,5.70
2019-03-11T14:27:34.432Z,6.20
2019-03-11T14:32:37.205Z,6.70
2019-03-11T14:37:39.901Z,6.50
2019-03-11T14:42:42.363Z,5.20
2019-03-11T14:47:45.958Z,4.60
2019-03-11T14:52:48.884Z,4.30
2019-03-11T14:57:54.509Z,4.50
2019-03-11T15:03:08.667Z,6.00
2019-03-11T15:08:14.041Z,7.40
2019-03-11T15:13:16.883Z,8.40
2019-03-11T15:18:19.503Z,9.10
2019-03-11T15:23:50.649Z,9.70
2019-03-11T15:29:17.693Z,8.80
2019-03-11T15:34:23.189Z,7.70
2019-03-11T15:39:25.718Z,6.90
2019-03-11T15:44:30.104Z,6.30
2019-03-11T15:49:33.102Z,5.60
2019-03-11T15:54:36.844Z,5.00
2019-03-11T15:59:40.332Z,4.70
2019-03-11T16:04:43.193Z,4.30
2019-03-11T16:09:45.791Z,4.10
2019-03-11T16:14:49.636Z,4.00
2019-03-11T16:19:52.863Z,4.10
2019-03-11T16:24:55.801Z,4.10
2019-03-11T16:29:57.273Z,4.20
2019-03-11T16:35:00.322Z,4.30
2019-03-11T16:46:26.514Z,4.30
2019-03-11T16:51:56.274Z,4.40
2019-03-11T16:57:03.603Z,4.20
2019-03-11T17:02:08.430Z,4.10
2019-03-11T17:07:11.120Z,4.00
2019-03-11T17:12:13.547Z,4.00
2019-03-11T17:17:37.760Z,4.10
2019-03-11T17:23:17.236Z,4.20
2019-03-11T17:29:03.719Z,4.40
2019-03-11T17:34:40.788Z,4.40
2019-03-11T17:39:44.371Z,4.50
2019-03-11T17:44:51.410Z,4.50
2019-03-11T17:49:56.125Z,4.50
2019-03-11T17:55:25.625Z,4.50
2019-03-11T18:00:55.581Z,4.50
2019-03-11T18:56:49.678Z,4.20
2019-03-11T19:07:32.749Z,4.50
2019-03-11T19:18:50.938Z,4.00
2019-03-11T19:23:57.461Z,4.00
2019-03-11T19:29:00.111Z,4.00
2019-03-11T19:34:03.875Z,4.00
2019-03-11T19:39:10.466Z,3.90
2019-03-11T19:44:14.652Z,3.90
2019-03-11T19:49:18.370Z,3.90
2019-03-11T19:54:22.412Z,3.80
2019-03-11T19:59:25.113Z,3.80
2019-03-11T20:04:29.352Z,3.90
2019-03-11T20:09:34.356Z,4.10
2019-03-11T20:15:05.106Z,4.20
2019-03-11T20:43:45.110Z,4.50
2019-03-11T21:55:40.991Z,4.30
2019-03-11T22:00:44.710Z,4.20
2019-03-11T22:06:00.474Z,4.20
2019-03-11T22:17:24.636Z,4.20
2019-03-11T22:23:06.765Z,4.40
2019-03-11T22:34:02.910Z,4.60
2019-03-11T22:39:41.258Z,4.70
2019-03-11T22:45:01.512Z,4.60
2019-03-11T22:56:06.037Z,4.10
2019-03-11T23:01:15.648Z,4.00
2019-03-11T23:06:20.828Z,3.80
2019-03-11T23:11:24.909Z,3.80
2019-03-11T23:16:27.468Z,3.80
2019-03-11T23:21:30.375Z,3.90
2019-03-11T23:26:35.504Z,3.90
2019-03-11T23:32:06.412Z,4.00
2019-03-11T23:37:12.297Z,3.90
